PTAO2: Poteau River, Poteau, OK

Data processed at Fri Mar 09 2018 23:48


All information presented herein is the property of the government of the United States of America and may be revised or deleted at any time without prior notice.
Dissemination of this information without the expressed written consent of the Public Affairs Office, Tulsa District U.S. Army Corps of Engineers is strictly prohibited.
These data are gathered electronically and, as presented, have not undergone any form of quality control. These data are not guaranteed to be valid or correct.
Go to home page.
Go to station list.

Upstream stations:

Downstream station:
Previous Day
Next Day
Current Day
    
SHEF ID:       PTAO2     Poteau River at Poteau, OK
STATION TYPE:  

               PRECIP     STAGE  RIV-FLOW   VOLTAGE  BAT-LOAD
                   in        ft       cfs      volt      volt
              Ccp-Rev   Ccp-Rev   Ccp-Rev   Ccp-Rev   Ccp-Rev
(US/Central)
03/07 00:00      0.00     19.84      7025     12.65     12.57
03/07 01:00      0.00     19.83      7018     12.57     12.49
03/07 02:00      0.00     19.85      7031     12.57     12.49
03/07 03:00      0.00     19.87      7045     12.57     12.49
03/07 04:00      0.00     19.91      7073     12.57     12.41
03/07 05:00      0.00     19.90      7066     12.49     12.41
03/07 06:00      0.00     19.91      7073     12.49     12.41
03/07 07:00      0.00     19.90      7066     12.49     12.41
03/07 08:00      0.00     19.94      7094     13.44     12.89
03/07 09:00      0.00     19.93      7087     14.00     13.37
03/07 10:00      0.00     19.93      7087     14.08     13.37
03/07 11:00      0.00     19.93      7087     13.53     14.08
03/07 12:00      0.00     19.93      7087     13.53     13.44
03/07 13:00      0.00     19.94      7094     13.44     13.53
03/07 14:00      0.00     19.94      7094     13.44     13.44
03/07 15:00      0.00     19.93      7087     13.53     13.68
03/07 16:00      0.00     19.93      7087     13.44     13.37
03/07 17:00      0.00     19.93      7087     13.44     13.29
03/07 18:00      0.00     19.95      7101     13.29     13.29
03/07 19:00      0.00     19.93      7087     13.05     13.05
03/07 20:00      0.00     19.95      7101     12.89     12.81
03/07 21:00      0.00     19.94      7094     12.73     12.65
03/07 22:00      0.00     19.94      7094     12.65     12.57
03/07 23:00      0.00     19.93      7087     12.65     12.57